Aviation Digital Data Service (ADDS)

Output produced by METARs form (0818 UTC 19 April 2019)
found at http://www.aviationweather.gov/metar/data/
 
METAR text: RJAW 190800Z 08008KT 9999 SCT025 22/16 Q1013 RMK 3CU025 A2991
Conditions at: RJAW (IWOJIMA (JMSDF) , JP) observed 0800 UTC 19 April 2019
Temperature: 22.0°C (72°F)
Dewpoint: 16.0°C (61°F) [RH = 69%]
Pressure (altimeter): 29.91 inches Hg (1013.0 mb)
Winds: from the E (80 degrees) at 9 MPH (8 knots; 4.1 m/s)
Visibility: 6 or more miles (10+ km)
Ceiling: at least 12,000 feet AGL
Clouds: scattered clouds at 2500 feet AGL
Weather: no significant weather observed at this time

METAR text: RJAW 190700Z 09008KT 040V110 9999 SCT025 22/16 Q1012 RMK 3CU025 A2991
Conditions at: RJAW (IWOJIMA (JMSDF) , JP) observed 0700 UTC 19 April 2019
Temperature: 22.0°C (72°F)
Dewpoint: 16.0°C (61°F) [RH = 69%]
Pressure (altimeter): 29.88 inches Hg (1012.0 mb)
Winds: from the E (90 degrees) at 9 MPH (8 knots; 4.1 m/s)
Visibility: 6 or more miles (10+ km)
Ceiling: at least 12,000 feet AGL
Clouds: scattered clouds at 2500 feet AGL
Weather: no significant weather observed at this time

METAR text: RJAW 190600Z 08007KT 050V120 9999 SCT025 23/16 Q1013 RMK 3CU025 A2992
Conditions at: RJAW (IWOJIMA (JMSDF) , JP) observed 0600 UTC 19 April 2019
Temperature: 23.0°C (73°F)
Dewpoint: 16.0°C (61°F) [RH = 65%]
Pressure (altimeter): 29.91 inches Hg (1013.0 mb)
Winds: from the E (80 degrees) at 8 MPH (7 knots; 3.6 m/s)
Visibility: 6 or more miles (10+ km)
Ceiling: at least 12,000 feet AGL
Clouds: scattered clouds at 2500 feet AGL
Weather: no significant weather observed at this time

METAR text: RJAW 190500Z 08008KT 040V120 9999 FEW025 SCT040 23/16 Q1013 RMK 2CU025 3SC040 A2994
Conditions at: RJAW (IWOJIMA (JMSDF) , JP) observed 0500 UTC 19 April 2019
Temperature: 23.0°C (73°F)
Dewpoint: 16.0°C (61°F) [RH = 65%]
Pressure (altimeter): 29.91 inches Hg (1013.0 mb)
Winds: from the E (80 degrees) at 9 MPH (8 knots; 4.1 m/s)
Visibility: 6 or more miles (10+ km)
Ceiling: at least 12,000 feet AGL
Clouds: few clouds at 2500 feet AGL
scattered clouds at 4000 feet AGL
Weather: no significant weather observed at this time

METAR text: RJAW 190400Z 06009KT 030V110 9999 SCT025 SCT040 23/17 Q1014 RMK 3CU025 4SC040 A2995
Conditions at: RJAW (IWOJIMA (JMSDF) , JP) observed 0400 UTC 19 April 2019
Temperature: 23.0°C (73°F)
Dewpoint: 17.0°C (63°F) [RH = 69%]
Pressure (altimeter): 29.94 inches Hg (1014.0 mb)
Winds: from the ENE (60 degrees) at 10 MPH (9 knots; 4.6 m/s)
Visibility: 6 or more miles (10+ km)
Ceiling: at least 12,000 feet AGL
Clouds: scattered clouds at 2500 feet AGL
scattered clouds at 4000 feet AGL
Weather: no significant weather observed at this time

METAR text: RJAW 190300Z 06008KT 030V090 9999 SCT025 24/16 Q1014 RMK 3CU025 A2996
Conditions at: RJAW (IWOJIMA (JMSDF) , JP) observed 0300 UTC 19 April 2019
Temperature: 24.0°C (75°F)
Dewpoint: 16.0°C (61°F) [RH = 61%]
Pressure (altimeter): 29.94 inches Hg (1014.0 mb)
Winds: from the ENE (60 degrees) at 9 MPH (8 knots; 4.1 m/s)
Visibility: 6 or more miles (10+ km)
Ceiling: at least 12,000 feet AGL
Clouds: scattered clouds at 2500 feet AGL
Weather: no significant weather observed at this time

METAR text: RJAW 190200Z 04007KT 360V100 9999 SCT025 24/16 Q1015 RMK 3CU025 A2998
Conditions at: RJAW (IWOJIMA (JMSDF) , JP) observed 0200 UTC 19 April 2019
Temperature: 24.0°C (75°F)
Dewpoint: 16.0°C (61°F) [RH = 61%]
Pressure (altimeter): 29.97 inches Hg (1015.0 mb)
Winds: from the NE (40 degrees) at 8 MPH (7 knots; 3.6 m/s)
Visibility: 6 or more miles (10+ km)
Ceiling: at least 12,000 feet AGL
Clouds: scattered clouds at 2500 feet AGL
Weather: no significant weather observed at this time

METAR text: RJAW 190100Z 06008KT 360V110 9999 SCT025 24/17 Q1015 RMK 3CU025 A2998
Conditions at: RJAW (IWOJIMA (JMSDF) , JP) observed 0100 UTC 19 April 2019
Temperature: 24.0°C (75°F)
Dewpoint: 17.0°C (63°F) [RH = 65%]
Pressure (altimeter): 29.97 inches Hg (1015.0 mb)
Winds: from the ENE (60 degrees) at 9 MPH (8 knots; 4.1 m/s)
Visibility: 6 or more miles (10+ km)
Ceiling: at least 12,000 feet AGL
Clouds: scattered clouds at 2500 feet AGL
Weather: no significant weather observed at this time

METAR text: RJAW 190000Z 04010KT 010V080 9999 FEW015 SCT025 22/17 Q1015 RMK 2CU015 4CU025 A2999
Conditions at: RJAW (IWOJIMA (JMSDF) , JP) observed 0000 UTC 19 April 2019
Temperature: 22.0°C (72°F)
Dewpoint: 17.0°C (63°F) [RH = 73%]
Pressure (altimeter): 29.97 inches Hg (1015.0 mb)
Winds: from the NE (40 degrees) at 12 MPH (10 knots; 5.1 m/s)
Visibility: 6 or more miles (10+ km)
Ceiling: at least 12,000 feet AGL
Clouds: few clouds at 1500 feet AGL
scattered clouds at 2500 feet AGL
Weather: no significant weather observed at this time

METAR text: RJAW 182300Z 06008KT 030V100 9999 SCT015 23/17 Q1015 RMK 3CU015 A2998
Conditions at: RJAW (IWOJIMA (JMSDF) , JP) observed 2300 UTC 18 April 2019
Temperature: 23.0°C (73°F)
Dewpoint: 17.0°C (63°F) [RH = 69%]
Pressure (altimeter): 29.97 inches Hg (1015.0 mb)
Winds: from the ENE (60 degrees) at 9 MPH (8 knots; 4.1 m/s)
Visibility: 6 or more miles (10+ km)
Ceiling: at least 12,000 feet AGL
Clouds: scattered clouds at 1500 feet AGL
Weather: no significant weather observed at this time

METAR text: RJAW 182200Z 05006KT 9999 SCT015 22/16 Q1014 RMK 3CU015 A2996
Conditions at: RJAW (IWOJIMA (JMSDF) , JP) observed 2200 UTC 18 April 2019
Temperature: 22.0°C (72°F)
Dewpoint: 16.0°C (61°F) [RH = 69%]
Pressure (altimeter): 29.94 inches Hg (1014.0 mb)
Winds: from the NE (50 degrees) at 7 MPH (6 knots; 3.1 m/s)
Visibility: 6 or more miles (10+ km)
Ceiling: at least 12,000 feet AGL
Clouds: scattered clouds at 1500 feet AGL
Weather: no significant weather observed at this time

METAR text: RJAW 182100Z 08005KT 9999 SCT015 21/17 Q1014 RMK 4CU015 A2995
Conditions at: RJAW (IWOJIMA (JMSDF) , JP) observed 2100 UTC 18 April 2019
Temperature: 21.0°C (70°F)
Dewpoint: 17.0°C (63°F) [RH = 78%]
Pressure (altimeter): 29.94 inches Hg (1014.0 mb)
Winds: from the E (80 degrees) at 6 MPH (5 knots; 2.6 m/s)
Visibility: 6 or more miles (10+ km)
Ceiling: at least 12,000 feet AGL
Clouds: scattered clouds at 1500 feet AGL
Weather: no significant weather observed at this time

METAR text: RJAW 182000Z 04004KT 9999 SCT015 20/17 Q1013 RMK 3CU015 A2994
Conditions at: RJAW (IWOJIMA (JMSDF) , JP) observed 2000 UTC 18 April 2019
Temperature: 20.0°C (68°F)
Dewpoint: 17.0°C (63°F) [RH = 83%]
Pressure (altimeter): 29.91 inches Hg (1013.0 mb)
Winds: from the NE (40 degrees) at 5 MPH (4 knots; 2.1 m/s)
Visibility: 6 or more miles (10+ km)
Ceiling: at least 12,000 feet AGL
Clouds: scattered clouds at 1500 feet AGL
Weather: no significant weather observed at this time

METAR text: RJAW 181800Z 05005KT 9999 FEW015 21/17 Q1013 RMK 2CU015 A2992
Conditions at: RJAW (IWOJIMA (JMSDF) , JP) observed 1800 UTC 18 April 2019
Temperature: 21.0°C (70°F)
Dewpoint: 17.0°C (63°F) [RH = 78%]
Pressure (altimeter): 29.91 inches Hg (1013.0 mb)
Winds: from the NE (50 degrees) at 6 MPH (5 knots; 2.6 m/s)
Visibility: 6 or more miles (10+ km)
Ceiling: at least 12,000 feet AGL
Clouds: few clouds at 1500 feet AGL
Weather: no significant weather observed at this time

METAR text: RJAW 181500Z 03007KT 9999 SCT015 21/18 Q1013 RMK 4CU015 A2993
Conditions at: RJAW (IWOJIMA (JMSDF) , JP) observed 1500 UTC 18 April 2019
Temperature: 21.0°C (70°F)
Dewpoint: 18.0°C (64°F) [RH = 83%]
Pressure (altimeter): 29.91 inches Hg (1013.0 mb)
Winds: from the NNE (30 degrees) at 8 MPH (7 knots; 3.6 m/s)
Visibility: 6 or more miles (10+ km)
Ceiling: at least 12,000 feet AGL
Clouds: scattered clouds at 1500 feet AGL
Weather: no significant weather observed at this time

METAR text: RJAW 181200Z 02006KT 9999 FEW015 22/19 Q1014 RMK 2CU015 A2995
Conditions at: RJAW (IWOJIMA (JMSDF) , JP) observed 1200 UTC 18 April 2019
Temperature: 22.0°C (72°F)
Dewpoint: 19.0°C (66°F) [RH = 83%]
Pressure (altimeter): 29.94 inches Hg (1014.0 mb)
Winds: from the NNE (20 degrees) at 7 MPH (6 knots; 3.1 m/s)
Visibility: 6 or more miles (10+ km)
Ceiling: at least 12,000 feet AGL
Clouds: few clouds at 1500 feet AGL
Weather: no significant weather observed at this time

METAR text: RJAW 180900Z 33007KT 9999 SCT015 23/20 Q1012 RMK 3CU015 A2989
Conditions at: RJAW (IWOJIMA (JMSDF) , JP) observed 0900 UTC 18 April 2019
Temperature: 23.0°C (73°F)
Dewpoint: 20.0°C (68°F) [RH = 83%]
Pressure (altimeter): 29.88 inches Hg (1012.0 mb)
Winds: from the NNW (330 degrees) at 8 MPH (7 knots; 3.6 m/s)
Visibility: 6 or more miles (10+ km)
Ceiling: at least 12,000 feet AGL
Clouds: scattered clouds at 1500 feet AGL
Weather: no significant weather observed at this time

METAR text: RJAW 180800Z 31010KT 9999 SCT015 24/20 Q1011 RMK 4CU015 A2988
Conditions at: RJAW (IWOJIMA (JMSDF) , JP) observed 0800 UTC 18 April 2019
Temperature: 24.0°C (75°F)
Dewpoint: 20.0°C (68°F) [RH = 78%]
Pressure (altimeter): 29.85 inches Hg (1011.0 mb)
Winds: from the NW (310 degrees) at 12 MPH (10 knots; 5.1 m/s)
Visibility: 6 or more miles (10+ km)
Ceiling: at least 12,000 feet AGL
Clouds: scattered clouds at 1500 feet AGL
Weather: no significant weather observed at this time

METAR text: RJAW 180700Z 30011KT 9999 SCT015 24/20 Q1011 RMK 3CU015 A2987
Conditions at: RJAW (IWOJIMA (JMSDF) , JP) observed 0700 UTC 18 April 2019
Temperature: 24.0°C (75°F)
Dewpoint: 20.0°C (68°F) [RH = 78%]
Pressure (altimeter): 29.85 inches Hg (1011.0 mb)
Winds: from the WNW (300 degrees) at 13 MPH (11 knots; 5.7 m/s)
Visibility: 6 or more miles (10+ km)
Ceiling: at least 12,000 feet AGL
Clouds: scattered clouds at 1500 feet AGL
Weather: no significant weather observed at this time

METAR text: RJAW 180600Z 30012KT 9999 FEW010 25/20 Q1011 RMK 2CU010 A2987
Conditions at: RJAW (IWOJIMA (JMSDF) , JP) observed 0600 UTC 18 April 2019
Temperature: 25.0°C (77°F)
Dewpoint: 20.0°C (68°F) [RH = 74%]
Pressure (altimeter): 29.85 inches Hg (1011.0 mb)
Winds: from the WNW (300 degrees) at 14 MPH (12 knots; 6.2 m/s)
Visibility: 6 or more miles (10+ km)
Ceiling: at least 12,000 feet AGL
Clouds: few clouds at 1000 feet AGL
Weather: no significant weather observed at this time

METAR text: RJAW 180500Z 30014KT 9999 FEW005 SCT010 24/21 Q1011 RMK 1ST005 3CU010 A2987
Conditions at: RJAW (IWOJIMA (JMSDF) , JP) observed 0500 UTC 18 April 2019
Temperature: 24.0°C (75°F)
Dewpoint: 21.0°C (70°F) [RH = 83%]
Pressure (altimeter): 29.85 inches Hg (1011.0 mb)
Winds: from the WNW (300 degrees) at 16 MPH (14 knots; 7.2 m/s)
Visibility: 6 or more miles (10+ km)
Ceiling: at least 12,000 feet AGL
Clouds: few clouds at 500 feet AGL
scattered clouds at 1000 feet AGL
Weather: no significant weather observed at this time

METAR text: RJAW 180400Z 30013KT 9999 FEW005 SCT010 25/21 Q1011 RMK 1ST005 3CU010 A2988
Conditions at: RJAW (IWOJIMA (JMSDF) , JP) observed 0400 UTC 18 April 2019
Temperature: 25.0°C (77°F)
Dewpoint: 21.0°C (70°F) [RH = 79%]
Pressure (altimeter): 29.85 inches Hg (1011.0 mb)
Winds: from the WNW (300 degrees) at 15 MPH (13 knots; 6.7 m/s)
Visibility: 6 or more miles (10+ km)
Ceiling: at least 12,000 feet AGL
Clouds: few clouds at 500 feet AGL
scattered clouds at 1000 feet AGL
Weather: no significant weather observed at this time

METAR text: RJAW 180321Z 30012KT 270V330 9999 FEW005 SCT010 25/22 Q1011 RMK 2ST005 4CU010 A2988
Conditions at: RJAW (IWOJIMA (JMSDF) , JP) observed 0321 UTC 18 April 2019
Temperature: 25.0°C (77°F)
Dewpoint: 22.0°C (72°F) [RH = 83%]
Pressure (altimeter): 29.85 inches Hg (1011.0 mb)
Winds: from the WNW (300 degrees) at 14 MPH (12 knots; 6.2 m/s)
Visibility: 6 or more miles (10+ km)
Ceiling: at least 12,000 feet AGL
Clouds: few clouds at 500 feet AGL
scattered clouds at 1000 feet AGL
Weather: no significant weather observed at this time

METAR text: RJAW 180300Z 28011KT 9999 FEW003 SCT005 BKN010 25/23 Q1011 RMK 2ST003 4ST005 6CU010 A2988
Conditions at: RJAW (IWOJIMA (JMSDF) , JP) observed 0300 UTC 18 April 2019
Temperature: 25.0°C (77°F)
Dewpoint: 23.0°C (73°F) [RH = 89%]
Pressure (altimeter): 29.85 inches Hg (1011.0 mb)
Winds: from the W (280 degrees) at 13 MPH (11 knots; 5.7 m/s)
Visibility: 6 or more miles (10+ km)
Ceiling: 1000 feet AGL
Clouds: few clouds at 300 feet AGL
scattered clouds at 500 feet AGL
broken clouds at 1000 feet AGL
Weather: no significant weather observed at this time

METAR text: RJAW 180200Z 26009KT 9999 FEW003 SCT005 BKN010 23/23 Q1012 RMK 2ST003 4ST005 7CU010 A2989
Conditions at: RJAW (IWOJIMA (JMSDF) , JP) observed 0200 UTC 18 April 2019
Temperature: 23.0°C (73°F)
Dewpoint: 23.0°C (73°F) [RH = 100%]
Pressure (altimeter): 29.88 inches Hg (1012.0 mb)
Winds: from the W (260 degrees) at 10 MPH (9 knots; 4.6 m/s)
Visibility: 6 or more miles (10+ km)
Ceiling: 1000 feet AGL
Clouds: few clouds at 300 feet AGL
scattered clouds at 500 feet AGL
broken clouds at 1000 feet AGL
Weather: no significant weather observed at this time

METAR text: RJAW 180145Z 26009KT 5000 -SHRA BR FEW001 SCT005 BKN010 23/22 Q1012 RMK 1ST001 3ST005 7CU010 A2989
Conditions at: RJAW (IWOJIMA (JMSDF) , JP) observed 0145 UTC 18 April 2019
Temperature: 23.0°C (73°F)
Dewpoint: 22.0°C (72°F) [RH = 94%]
Pressure (altimeter): 29.88 inches Hg (1012.0 mb)
Winds: from the W (260 degrees) at 10 MPH (9 knots; 4.6 m/s)
Visibility: 3 miles ( 5 km)
Ceiling: 1000 feet AGL
Clouds: few clouds at 100 feet AGL
scattered clouds at 500 feet AGL
broken clouds at 1000 feet AGL
Weather: -SHRA BR  (light rain showers, mist)

METAR text: RJAW 180135Z 29010KT 4500 -SHRA BR FEW001 SCT003 BKN010 23/22 Q1012 RMK 1ST001 4ST003 7CU010 A2989
Conditions at: RJAW (IWOJIMA (JMSDF) , JP) observed 0135 UTC 18 April 2019
Temperature: 23.0°C (73°F)
Dewpoint: 22.0°C (72°F) [RH = 94%]
Pressure (altimeter): 29.88 inches Hg (1012.0 mb)
Winds: from the WNW (290 degrees) at 12 MPH (10 knots; 5.1 m/s)
Visibility: 2.80 miles (4.51 km)
Ceiling: 1000 feet AGL
Clouds: few clouds at 100 feet AGL
scattered clouds at 300 feet AGL
broken clouds at 1000 feet AGL
Weather: -SHRA BR  (light rain showers, mist)

METAR text: RJAW 180116Z 29009KT 3200 R07/1000VP1800U -SHRA BR FEW001 BKN003 BKN010 FEW010CB 23/22 Q1012 RMK 2ST001 5ST003 7CU010 1CB010 A2989 R1800 CB 15KM NE MOV NE
Conditions at: RJAW (IWOJIMA (JMSDF) , JP) observed 0116 UTC 18 April 2019
Temperature: 23.0°C (73°F)
Dewpoint: 22.0°C (72°F) [RH = 94%]
Pressure (altimeter): 29.88 inches Hg (1012.0 mb)
Winds: from the WNW (290 degrees) at 10 MPH (9 knots; 4.6 m/s)
Visibility: 1.99 miles (3.20 km)
Ceiling: 300 feet AGL
Clouds: few clouds at 100 feet AGL
broken clouds at 300 feet AGL
broken clouds at 1000 feet AGL
few clouds at 1000 feet AGL
Weather: -SHRA BR  (light rain showers, mist)

METAR text: RJAW 180107Z 26013KT 2400 R07/0800VP1800U SHRA BR SCT001 BKN003 BKN010 FEW010CB 22/22 Q1012 RMK 3ST001 6ST003 7CU010 2CB010 A2989 R1000 CB 10KM NE MOV NE
Conditions at: RJAW (IWOJIMA (JMSDF) , JP) observed 0107 UTC 18 April 2019
Temperature: 22.0°C (72°F)
Dewpoint: 22.0°C (72°F) [RH = 100%]
Pressure (altimeter): 29.88 inches Hg (1012.0 mb)
Winds: from the W (260 degrees) at 15 MPH (13 knots; 6.7 m/s)
Visibility: 1.49 miles (2.40 km)
Ceiling: 300 feet AGL
Clouds: scattered clouds at 100 feet AGL
broken clouds at 300 feet AGL
broken clouds at 1000 feet AGL
few clouds at 1000 feet AGL
Weather: SHRA BR  (rain showers, mist)

METAR text: RJAW 180100Z 25009G23KT 210V270 1500 R07/0900V1400D +SHRA BR SCT001 BKN003 OVC010CB 23/23 Q1012 RMK 3ST001 6ST003 8CB010 A2990 R1000 CB OHD MOV NE RI++
Conditions at: RJAW (IWOJIMA (JMSDF) , JP) observed 0100 UTC 18 April 2019
Temperature: 23.0°C (73°F)
Dewpoint: 23.0°C (73°F) [RH = 100%]
Pressure (altimeter): 29.88 inches Hg (1012.0 mb)
Winds: from the WSW (250 degrees) at 10 MPH (9 knots; 4.6 m/s)
gusting to 26 MPH (23 knots; 11.8 m/s)
Visibility: 0.93 miles (1.50 km)
Ceiling: 300 feet AGL
Clouds: scattered clouds at 100 feet AGL
broken clouds at 300 feet AGL
overcast cloud deck at 1000 feet AGL
Weather: +SHRA BR  (heavy rain showers, mist)

METAR text: RJAW 180055Z 25008KT 210V290 1500 R07/0900V1400N +SHRA BR SCT001 BKN003 OVC010CB 23/23 Q1012 RMK 3ST001 6ST003 8CB010 A2990 R1000 CB OHD MOV NE RI++
Conditions at: RJAW (IWOJIMA (JMSDF) , JP) observed 0055 UTC 18 April 2019
Temperature: 23.0°C (73°F)
Dewpoint: 23.0°C (73°F) [RH = 100%]
Pressure (altimeter): 29.88 inches Hg (1012.0 mb)
Winds: from the WSW (250 degrees) at 9 MPH (8 knots; 4.1 m/s)
Visibility: 0.93 miles (1.50 km)
Ceiling: 300 feet AGL
Clouds: scattered clouds at 100 feet AGL
broken clouds at 300 feet AGL
overcast cloud deck at 1000 feet AGL
Weather: +SHRA BR  (heavy rain showers, mist)

METAR text: RJAW 180044Z 24010KT 180V290 3100 R07/1200D +SHRA BR SCT001 BKN003 BKN010 FEW010CB 23/23 Q1012 RMK 3ST001 5ST003 7CU010 2CB010 A2989 CB 5KM W MOV NE
Conditions at: RJAW (IWOJIMA (JMSDF) , JP) observed 0044 UTC 18 April 2019
Temperature: 23.0°C (73°F)
Dewpoint: 23.0°C (73°F) [RH = 100%]
Pressure (altimeter): 29.88 inches Hg (1012.0 mb)
Winds: from the WSW (240 degrees) at 12 MPH (10 knots; 5.1 m/s)
Visibility: 1.93 miles (3.11 km)
Ceiling: 300 feet AGL
Clouds: scattered clouds at 100 feet AGL
broken clouds at 300 feet AGL
broken clouds at 1000 feet AGL
few clouds at 1000 feet AGL
Weather: +SHRA BR  (heavy rain showers, mist)

METAR text: RJAW 180036Z 25005KT 180V320 3200 R07/1800U -SHRA BR SCT001 BKN003 BKN010 FEW010CB 23/22 Q1012 RMK 3ST001 5ST003 7CU010 1CB010 A2989 CB 15KM SW MOV NE
Conditions at: RJAW (IWOJIMA (JMSDF) , JP) observed 0036 UTC 18 April 2019
Temperature: 23.0°C (73°F)
Dewpoint: 22.0°C (72°F) [RH = 94%]
Pressure (altimeter): 29.88 inches Hg (1012.0 mb)
Winds: from the WSW (250 degrees) at 6 MPH (5 knots; 2.6 m/s)
Visibility: 1.99 miles (3.20 km)
Ceiling: 300 feet AGL
Clouds: scattered clouds at 100 feet AGL
broken clouds at 300 feet AGL
broken clouds at 1000 feet AGL
few clouds at 1000 feet AGL
Weather: -SHRA BR  (light rain showers, mist)

METAR text: RJAW 180022Z 26009KT 230V300 2500 R07/1100N SHRA BR SCT001 BKN003 BKN010 SCT010CB 23/22 Q1012 RMK 3ST001 6ST003 7CU010 3CB010 A2989 CB 10KM NE MOV NE
Conditions at: RJAW (IWOJIMA (JMSDF) , JP) observed 0022 UTC 18 April 2019
Temperature: 23.0°C (73°F)
Dewpoint: 22.0°C (72°F) [RH = 94%]
Pressure (altimeter): 29.88 inches Hg (1012.0 mb)
Winds: from the W (260 degrees) at 10 MPH (9 knots; 4.6 m/s)
Visibility: 1.55 miles (2.49 km)
Ceiling: 300 feet AGL
Clouds: scattered clouds at 100 feet AGL
broken clouds at 300 feet AGL
broken clouds at 1000 feet AGL
scattered clouds at 1000 feet AGL
Weather: SHRA BR  (rain showers, mist)

METAR text: RJAW 180003Z 22013G23KT 190V250 2500 R07/1100D +TSRA BR SCT001 BKN003 OVC010CB 24/24 Q1012 RMK 3ST001 7ST003 8CB010 A2989 FBL TS 5KM N MOV NE
Conditions at: RJAW (IWOJIMA (JMSDF) , JP) observed 0003 UTC 18 April 2019
Temperature: 24.0°C (75°F)
Dewpoint: 24.0°C (75°F) [RH = 100%]
Pressure (altimeter): 29.88 inches Hg (1012.0 mb)
Winds: from the SW (220 degrees) at 15 MPH (13 knots; 6.7 m/s)
gusting to 26 MPH (23 knots; 11.8 m/s)
Visibility: 1.55 miles (2.49 km)
Ceiling: 300 feet AGL
Clouds: scattered clouds at 100 feet AGL
broken clouds at 300 feet AGL
overcast cloud deck at 1000 feet AGL
Weather: +TSRA BR  (heavy rain associated with thunderstorm(s), mist)

METAR text: RJAW 180000Z 23011KT 190V260 2500 R07/1300N TSRA BR FEW001 BKN003 BKN005 BKN010CB 24/23 Q1011 RMK 2ST001 5ST003 5ST005 7CB010 A2988 FBL TS 10KM NE MOV NE
Conditions at: RJAW (IWOJIMA (JMSDF) , JP) observed 0000 UTC 18 April 2019
Temperature: 24.0°C (75°F)
Dewpoint: 23.0°C (73°F) [RH = 94%]
Pressure (altimeter): 29.85 inches Hg (1011.0 mb)
Winds: from the SW (230 degrees) at 13 MPH (11 knots; 5.7 m/s)
Visibility: 1.55 miles (2.49 km)
Ceiling: 300 feet AGL
Clouds: few clouds at 100 feet AGL
broken clouds at 300 feet AGL
broken clouds at 500 feet AGL
broken clouds at 1000 feet AGL
Weather: TSRA BR  (rain associated with thunderstorm(s), mist)

METAR text: RJAW 172337Z 23015KT 4900 TSRA BR FEW001 BKN003 BKN005 BKN010CB 24/24 Q1011 RMK 2ST001 5ST003 5ST005 7CB010 A2988 FBL TS 5KM N MOV NE
Conditions at: RJAW (IWOJIMA (JMSDF) , JP) observed 2337 UTC 17 April 2019
Temperature: 24.0°C (75°F)
Dewpoint: 24.0°C (75°F) [RH = 100%]
Pressure (altimeter): 29.85 inches Hg (1011.0 mb)
Winds: from the SW (230 degrees) at 17 MPH (15 knots; 7.7 m/s)
Visibility: 3 miles ( 5 km)
Ceiling: 300 feet AGL
Clouds: few clouds at 100 feet AGL
broken clouds at 300 feet AGL
broken clouds at 500 feet AGL
broken clouds at 1000 feet AGL
Weather: TSRA BR  (rain associated with thunderstorm(s), mist)

METAR text: RJAW 172300Z 23014G24KT 8000 -SHRA FEW003 BKN005 BKN015 24/24 Q1011 RMK 2ST003 5ST005 7CU015 A2987
Conditions at: RJAW (IWOJIMA (JMSDF) , JP) observed 2300 UTC 17 April 2019
Temperature: 24.0°C (75°F)
Dewpoint: 24.0°C (75°F) [RH = 100%]
Pressure (altimeter): 29.85 inches Hg (1011.0 mb)
Winds: from the SW (230 degrees) at 16 MPH (14 knots; 7.2 m/s)
gusting to 28 MPH (24 knots; 12.3 m/s)
Visibility: 5 miles ( 8 km)
Ceiling: 500 feet AGL
Clouds: few clouds at 300 feet AGL
broken clouds at 500 feet AGL
broken clouds at 1500 feet AGL
Weather: -SHRA  (light rain showers)

METAR text: RJAW 172249Z 22015KT 8000 -SHRA FEW003 BKN005 BKN015 24/24 Q1011 RMK 2ST003 5ST005 7CU015 A2987
Conditions at: RJAW (IWOJIMA (JMSDF) , JP) observed 2249 UTC 17 April 2019
Temperature: 24.0°C (75°F)
Dewpoint: 24.0°C (75°F) [RH = 100%]
Pressure (altimeter): 29.85 inches Hg (1011.0 mb)
Winds: from the SW (220 degrees) at 17 MPH (15 knots; 7.7 m/s)
Visibility: 5 miles ( 8 km)
Ceiling: 500 feet AGL
Clouds: few clouds at 300 feet AGL
broken clouds at 500 feet AGL
broken clouds at 1500 feet AGL
Weather: -SHRA  (light rain showers)

METAR text: RJAW 172221Z 23016G27KT 9999 SCT005 BKN015 BKN100 24/24 Q1010 RMK 4ST005 5CU015 7AC100 A2985
Conditions at: RJAW (IWOJIMA (JMSDF) , JP) observed 2221 UTC 17 April 2019
Temperature: 24.0°C (75°F)
Dewpoint: 24.0°C (75°F) [RH = 100%]
Pressure (altimeter): 29.82 inches Hg (1010.0 mb)
Winds: from the SW (230 degrees) at 18 MPH (16 knots; 8.2 m/s)
gusting to 31 MPH (27 knots; 13.9 m/s)
Visibility: 6 or more miles (10+ km)
Ceiling: 1500 feet AGL
Clouds: scattered clouds at 500 feet AGL
broken clouds at 1500 feet AGL
broken clouds at 10000 feet AGL
Weather: no significant weather observed at this time

METAR text: RJAW 172200Z 22016G26KT 200V260 9000 -SHRA FEW003 BKN005 BKN015 24/23 Q1010 RMK 2ST003 5ST005 7CU015 A2984
Conditions at: RJAW (IWOJIMA (JMSDF) , JP) observed 2200 UTC 17 April 2019
Temperature: 24.0°C (75°F)
Dewpoint: 23.0°C (73°F) [RH = 94%]
Pressure (altimeter): 29.82 inches Hg (1010.0 mb)
Winds: from the SW (220 degrees) at 18 MPH (16 knots; 8.2 m/s)
gusting to 30 MPH (26 knots; 13.4 m/s)
Visibility: 6 miles ( 9 km)
Ceiling: 500 feet AGL
Clouds: few clouds at 300 feet AGL
broken clouds at 500 feet AGL
broken clouds at 1500 feet AGL
Weather: -SHRA  (light rain showers)

METAR text: RJAW 172116Z 20023G33KT 7000 -SHRA FEW003 BKN005 BKN015 FEW015TCU 24/24 Q1008 RMK 2ST003 5ST005 7CU015 1TCU015 A2978 TCU 10KM E MOV E
Conditions at: RJAW (IWOJIMA (JMSDF) , JP) observed 2116 UTC 17 April 2019
Temperature: 24.0°C (75°F)
Dewpoint: 24.0°C (75°F) [RH = 100%]
Pressure (altimeter): 29.76 inches Hg (1008.0 mb)
Winds: from the SSW (200 degrees) at 26 MPH (23 knots; 11.8 m/s)
gusting to 38 MPH (33 knots; 17.0 m/s)
Visibility: 4 miles ( 7 km)
Ceiling: 500 feet AGL
Clouds: few clouds at 300 feet AGL
broken clouds at 500 feet AGL
broken clouds at 1500 feet AGL
few clouds at 1500 feet AGL
Weather: -SHRA  (light rain showers)

METAR text: RJAW 172102Z 20021G37KT 5000 SHRA BR SCT003 BKN005 BKN015 FEW015TCU 24/24 Q1008 RMK 4ST003 6ST005 7CU015 2TCU015 A2978 TCU OHD MOV E
Conditions at: RJAW (IWOJIMA (JMSDF) , JP) observed 2102 UTC 17 April 2019
Temperature: 24.0°C (75°F)
Dewpoint: 24.0°C (75°F) [RH = 100%]
Pressure (altimeter): 29.76 inches Hg (1008.0 mb)
Winds: from the SSW (200 degrees) at 24 MPH (21 knots; 10.8 m/s)
gusting to 43 MPH (37 knots; 19.0 m/s)
Visibility: 3 miles ( 5 km)
Ceiling: 500 feet AGL
Clouds: scattered clouds at 300 feet AGL
broken clouds at 500 feet AGL
broken clouds at 1500 feet AGL
few clouds at 1500 feet AGL
Weather: SHRA BR  (rain showers, mist)

METAR text: RJAW 172100Z 20018KT 8000 -SHRA SCT003 BKN005 BKN015 FEW015TCU 24/24 Q1009 RMK 3ST003 6ST005 7CU015 2TCU015 A2980 TCU 5KM W MOV E
Conditions at: RJAW (IWOJIMA (JMSDF) , JP) observed 2100 UTC 17 April 2019
Temperature: 24.0°C (75°F)
Dewpoint: 24.0°C (75°F) [RH = 100%]
Pressure (altimeter): 29.79 inches Hg (1009.0 mb)
Winds: from the SSW (200 degrees) at 21 MPH (18 knots; 9.3 m/s)
Visibility: 5 miles ( 8 km)
Ceiling: 500 feet AGL
Clouds: scattered clouds at 300 feet AGL
broken clouds at 500 feet AGL
broken clouds at 1500 feet AGL
few clouds at 1500 feet AGL
Weather: -SHRA  (light rain showers)

METAR text: RJAW 172044Z 20020G30KT 8000 -SHRA FEW003 BKN005 BKN015 FEW015TCU 24/23 Q1008 RMK 2ST003 5ST005 7CU015 1TCU015 A2979 TCU 10KM W MOV E
Conditions at: RJAW (IWOJIMA (JMSDF) , JP) observed 2044 UTC 17 April 2019
Temperature: 24.0°C (75°F)
Dewpoint: 23.0°C (73°F) [RH = 94%]
Pressure (altimeter): 29.76 inches Hg (1008.0 mb)
Winds: from the SSW (200 degrees) at 23 MPH (20 knots; 10.3 m/s)
gusting to 34 MPH (30 knots; 15.4 m/s)
Visibility: 5 miles ( 8 km)
Ceiling: 500 feet AGL
Clouds: few clouds at 300 feet AGL
broken clouds at 500 feet AGL
broken clouds at 1500 feet AGL
few clouds at 1500 feet AGL
Weather: -SHRA  (light rain showers)